Time;durP1;ratioP1;P1;durP2;ratioP2;P2;SDS_P1;SDS_P2;PMS_P1;PMS_P2;Temp;Humidity;BMP_temperature;BMP_pressure;BME280_temperature;BME280_humidity;BME280_pressure;Samples;Min_cycle;Max_cycle;Signal;HPM_P1;HPM_P2
2021/12/09 00:01:49;;;;;;;255.82;110.63;;;4.20;99.90;;;;;;5035879;28;20033;-49
2021/12/09 00:04:24;;;;;;;195.75;83.25;;;4.20;99.90;;;;;;5036288;28;20021;-49
2021/12/09 00:06:50;;;;;;;223.82;87.35;;;4.20;99.90;;;;;;5036089;28;20026;-49
2021/12/09 00:09:20;;;;;;;265.83;93.45;;;4.20;99.90;;;;;;5036077;28;20032;-49
2021/12/09 00:11:47;;;;;;;301.20;107.95;;;4.30;99.90;;;;;;5036085;28;20029;-49
2021/12/09 00:14:18;;;;;;;351.05;127.75;;;4.30;99.90;;;;;;5035840;28;20475;-49
2021/12/09 00:16:44;;;;;;;;;;;4.30;99.90;;;;;;5036118;28;20475;-49
2021/12/09 00:19:10;;;;;;;99.38;41.30;;;4.40;99.90;;;;;;5036000;28;19931;-49
2021/12/09 00:21:36;;;;;;;80.00;34.00;;;4.40;99.90;;;;;;5035682;28;20118;-49
2021/12/09 00:24:03;;;;;;;63.15;28.60;;;4.60;99.90;;;;;;5035710;28;20068;-49
2021/12/09 00:26:29;;;;;;;89.28;34.38;;;4.70;99.90;;;;;;5035774;28;20108;-49
2021/12/09 00:28:55;;;;;;;135.88;46.03;;;4.70;99.90;;;;;;5035720;28;20048;-49
2021/12/09 00:31:22;;;;;;;82.03;31.40;;;4.90;99.90;;;;;;5035530;28;20192;-49
2021/12/09 00:33:49;;;;;;;94.72;39.92;;;4.90;99.90;;;;;;5035692;28;20033;-49
2021/12/09 00:36:26;;;;;;;112.32;46.50;;;5.00;99.90;;;;;;5035515;28;20116;-49
2021/12/09 00:38:57;;;;;;;115.22;50.25;;;5.00;99.90;;;;;;5034771;28;20029;-49
2021/12/09 00:41:23;;;;;;;140.60;58.85;;;5.00;99.90;;;;;;5035512;28;20112;-49
2021/12/09 00:43:49;;;;;;;113.35;47.00;;;4.90;99.90;;;;;;5035541;28;20026;-49
2021/12/09 00:46:16;;;;;;;88.95;38.63;;;4.90;99.90;;;;;;5035425;28;20378;-49
2021/12/09 00:48:42;;;;;;;63.20;29.15;;;5.00;99.90;;;;;;5035387;28;20032;-49
2021/12/09 00:51:09;;;;;;;77.25;31.33;;;5.00;99.90;;;;;;5035485;28;20071;-50
2021/12/09 00:53:36;;;;;;;80.30;34.53;;;5.00;99.90;;;;;;5035173;28;20107;-49
2021/12/09 00:56:04;;;;;;;69.18;33.28;;;5.00;99.90;;;;;;5035346;28;20427;-49
2021/12/09 00:58:30;;;;;;;74.20;32.25;;;5.00;99.90;;;;;;5035213;28;20475;-50
2021/12/09 01:00:56;;;;;;;76.57;35.83;;;5.00;99.90;;;;;;5035078;28;20033;-49
2021/12/09 01:03:22;;;;;;;72.75;32.50;;;4.90;99.90;;;;;;5035227;28;20221;-49
2021/12/09 01:05:49;;;;;;;96.40;36.28;;;4.90;99.90;;;;;;5034969;28;20117;-50
2021/12/09 01:08:15;;;;;;;115.80;43.60;;;5.00;99.90;;;;;;5035187;28;20383;-49
2021/12/09 01:10:41;;;;;;;123.95;43.00;;;5.00;99.90;;;;;;5035016;28;20033;-49
2021/12/09 01:13:08;;;;;;;129.70;44.67;;;5.10;99.90;;;;;;5034834;28;20033;-50
2021/12/09 01:15:34;;;;;;;46.55;19.77;;;5.10;99.90;;;;;;5035114;28;20075;-49
2021/12/09 01:18:01;;;;;;;43.75;18.40;;;5.10;99.90;;;;;;5035353;28;20044;-50
2021/12/09 01:20:27;;;;;;;46.72;19.35;;;5.30;99.90;;;;;;5034800;28;20079;-50
2021/12/09 01:22:54;;;;;;;51.88;21.38;;;5.30;99.90;;;;;;5034924;28;20075;-49
2021/12/09 01:25:22;;;;;;;41.83;18.83;;;5.30;99.90;;;;;;5034893;28;20025;-50
2021/12/09 01:27:51;;;;;;;68.28;26.02;;;5.40;99.90;;;;;;5034745;28;20065;-50
2021/12/09 01:30:19;;;;;;;66.25;25.73;;;5.40;99.90;;;;;;5034942;28;20112;-49
2021/12/09 01:32:50;;;;;;;33.88;16.55;;;5.40;99.90;;;;;;5034768;28;20501;-49
2021/12/09 01:35:36;;;;;;;;;;;5.50;99.90;;;;;;5034996;28;20033;-49
2021/12/09 01:38:10;;;;;;;93.30;36.45;;;5.50;99.90;;;;;;5034815;28;20014;-50
2021/12/09 01:40:37;;;;;;;74.53;31.67;;;5.50;99.90;;;;;;5034714;28;20467;-50
2021/12/09 01:43:03;;;;;;;52.25;23.95;;;5.50;99.90;;;;;;5034654;28;20037;-49
2021/12/09 01:45:30;;;;;;;38.88;17.05;;;5.60;99.90;;;;;;5034995;28;20032;-50
2021/12/09 01:47:56;;;;;;;32.33;15.75;;;5.60;99.90;;;;;;5034560;28;20061;-50
2021/12/09 01:50:23;;;;;;;37.25;17.17;;;5.60;99.90;;;;;;5038086;28;20044;-50
2021/12/09 01:52:49;;;;;;;50.70;22.65;;;5.60;99.90;;;;;;5038771;28;20033;-49
2021/12/09 01:55:18;;;;;;;53.58;23.17;;;5.60;99.90;;;;;;5038512;28;20032;-50
2021/12/09 01:57:47;;;;;;;47.08;21.23;;;5.50;99.90;;;;;;5038424;28;20501;-50
2021/12/09 02:00:16;;;;;;;52.05;24.95;;;5.50;99.90;;;;;;5038542;28;20112;-50
2021/12/09 02:02:43;;;;;;;39.10;18.85;;;5.50;99.90;;;;;;5038471;28;20025;-50
2021/12/09 02:05:11;;;;;;;44.08;21.48;;;5.50;99.90;;;;;;5038413;28;20034;-50
2021/12/09 02:07:37;;;;;;;47.97;23.25;;;5.40;99.90;;;;;;5038415;28;20386;-50
2021/12/09 02:10:12;;;;;;;44.03;21.75;;;5.20;99.90;;;;;;5038268;28;20104;-49
2021/12/09 02:12:38;;;;;;;43.47;20.30;;;5.10;99.90;;;;;;5038268;28;20294;-49
2021/12/09 02:15:05;;;;;;;41.65;18.75;;;5.10;99.90;;;;;;5038198;28;20553;-49
2021/12/09 02:17:32;;;;;;;41.65;20.10;;;5.10;99.90;;;;;;5036726;28;20033;-49
2021/12/09 02:20:00;;;;;;;43.83;20.88;;;5.10;99.90;;;;;;5038273;28;20025;-49
2021/12/09 02:22:28;;;;;;;44.45;20.75;;;5.00;99.90;;;;;;5038237;28;20053;-50
2021/12/09 02:24:55;;;;;;;41.92;20.42;;;4.80;99.90;;;;;;5037883;28;20391;-50
2021/12/09 02:27:22;;;;;;;45.80;20.75;;;4.70;99.90;;;;;;5038197;28;20025;-49
2021/12/09 02:29:52;;;;;;;44.50;21.42;;;4.70;99.90;;;;;;5038321;28;20044;-50
2021/12/09 02:32:18;;;;;;;41.63;20.08;;;4.70;99.90;;;;;;5038014;28;20034;-49
2021/12/09 02:34:45;;;;;;;42.80;20.08;;;4.50;99.90;;;;;;5037887;28;20112;-50
2021/12/09 02:37:13;;;;;;;46.38;22.00;;;4.40;99.90;;;;;;5037739;28;20040;-50
2021/12/09 02:39:40;;;;;;;42.90;21.85;;;4.40;99.90;;;;;;5037812;28;20352;-50
2021/12/09 02:42:07;;;;;;;49.10;22.73;;;4.50;99.90;;;;;;5037823;28;20022;-50
2021/12/09 02:44:33;;;;;;;43.72;21.10;;;4.60;99.90;;;;;;5037968;28;20025;-50
2021/12/09 02:46:59;;;;;;;44.65;21.98;;;4.50;99.90;;;;;;5037650;28;20117;-49
2021/12/09 02:49:28;;;;;;;42.97;20.80;;;4.50;99.90;;;;;;5037600;28;20104;-49
2021/12/09 02:51:55;;;;;;;41.72;21.30;;;4.30;99.90;;;;;;5037569;28;20064;-49
2021/12/09 02:54:23;;;;;;;41.47;18.95;;;4.20;99.90;;;;;;5037458;28;20029;-49
2021/12/09 02:56:51;;;;;;;40.40;21.13;;;4.20;99.90;;;;;;5037573;28;20035;-50
2021/12/09 02:59:17;;;;;;;42.58;19.70;;;4.20;99.90;;;;;;5037536;28;20375;-49
2021/12/09 03:01:57;;;;;;;42.03;20.73;;;4.10;99.90;;;;;;5036469;28;20061;-49
2021/12/09 03:04:44;;;;;;;39.30;20.20;;;4.10;99.90;;;;;;5037436;28;20037;-49
2021/12/09 03:07:14;;;;;;;46.22;23.63;;;4.00;99.90;;;;;;5037261;28;20556;-49
2021/12/09 03:09:49;;;;;;;49.38;24.45;;;4.10;99.90;;;;;;5037310;28;20041;-49
2021/12/09 03:12:20;;;;;;;50.17;24.17;;;4.00;99.90;;;;;;5037086;28;20486;-49
2021/12/09 03:14:47;;;;;;;48.70;22.52;;;4.00;99.90;;;;;;5035779;28;20034;-50
2021/12/09 03:17:13;;;;;;;38.47;20.20;;;4.00;99.90;;;;;;5037072;28;20053;-49
2021/12/09 03:19:39;;;;;;;43.90;23.00;;;4.00;99.90;;;;;;5036980;28;20026;-50
2021/12/09 03:22:05;;;;;;;42.70;22.20;;;4.00;99.90;;;;;;5036910;28;20030;-49
2021/12/09 03:24:31;;;;;;;50.88;24.25;;;4.10;99.90;;;;;;5037088;28;20475;-49
2021/12/09 03:26:58;;;;;;;48.10;23.92;;;4.10;99.90;;;;;;5037105;28;20040;-49
2021/12/09 03:29:26;;;;;;;57.80;27.48;;;4.20;99.90;;;;;;5036718;28;20355;-49
2021/12/09 03:31:56;;;;;;;69.22;34.38;;;4.20;99.90;;;;;;5037046;28;20383;-49
2021/12/09 03:34:25;;;;;;;73.43;36.65;;;4.30;99.90;;;;;;5036698;28;20034;-49
2021/12/09 03:36:52;;;;;;;70.63;36.22;;;4.40;99.90;;;;;;5036637;28;20116;-49
2021/12/09 03:39:22;;;;;;;69.60;35.03;;;4.40;99.90;;;;;;5036909;28;20382;-49
2021/12/09 03:41:52;;;;;;;63.47;31.15;;;4.50;99.90;;;;;;5036767;28;20036;-49
2021/12/09 03:44:18;;;;;;;55.55;28.75;;;4.50;99.90;;;;;;5036693;28;20479;-50
2021/12/09 03:46:44;;;;;;;51.80;26.52;;;4.60;99.90;;;;;;5036541;28;20025;-49
2021/12/09 03:49:10;;;;;;;60.03;29.80;;;4.60;99.90;;;;;;5036432;28;20103;-50
2021/12/09 03:51:37;;;;;;;66.15;33.78;;;4.70;99.90;;;;;;5036638;28;20069;-50
2021/12/09 03:54:09;;;;;;;81.07;40.83;;;4.60;99.90;;;;;;5036280;28;20060;-49
2021/12/09 03:56:36;;;;;;;79.28;41.08;;;4.60;99.90;;;;;;5036423;28;20556;-49
2021/12/09 03:59:04;;;;;;;83.32;42.05;;;4.60;99.90;;;;;;5036558;28;20101;-50
2021/12/09 04:01:31;;;;;;;66.82;35.97;;;4.50;99.90;;;;;;5036243;28;20034;-50
2021/12/09 04:03:57;;;;;;;64.03;35.03;;;4.40;99.90;;;;;;5036234;28;20120;-50
2021/12/09 04:06:23;;;;;;;64.90;33.97;;;4.40;99.90;;;;;;5036060;28;20056;-49
2021/12/09 04:08:49;;;;;;;63.30;33.47;;;4.50;99.90;;;;;;5036106;28;20352;-50
2021/12/09 04:11:17;;;;;;;61.08;31.42;;;4.50;99.90;;;;;;5036373;28;20486;-49
2021/12/09 04:13:43;;;;;;;67.65;31.40;;;4.50;99.90;;;;;;5036016;28;20095;-49
2021/12/09 04:16:10;;;;;;;54.85;29.05;;;4.50;99.90;;;;;;5035914;28;20056;-50
2021/12/09 04:18:38;;;;;;;60.70;31.20;;;4.40;99.90;;;;;;5035847;28;20029;-50
2021/12/09 04:21:05;;;;;;;59.70;30.23;;;4.40;99.90;;;;;;5035994;28;20444;-50
2021/12/09 04:23:32;;;;;;;61.33;32.53;;;4.50;99.90;;;;;;5035860;28;20037;-50
2021/12/09 04:25:59;;;;;;;64.70;33.97;;;4.50;99.90;;;;;;5035612;28;20116;-50
2021/12/09 04:28:25;;;;;;;60.60;33.13;;;4.60;99.90;;;;;;5035892;28;20046;-49
2021/12/09 04:30:52;;;;;;;64.22;33.95;;;4.60;99.90;;;;;;5035697;28;20460;-50
2021/12/09 04:33:18;;;;;;;64.40;33.03;;;4.60;99.90;;;;;;5035626;28;20470;-50
2021/12/09 04:35:44;;;;;;;59.42;34.15;;;4.50;99.90;;;;;;5035767;28;20029;-50
2021/12/09 04:38:10;;;;;;;63.65;33.58;;;4.50;99.90;;;;;;5035428;28;20037;-50
2021/12/09 04:40:36;;;;;;;82.38;39.60;;;4.50;99.90;;;;;;5035349;28;20025;-50
2021/12/09 04:43:02;;;;;;;82.38;42.60;;;4.60;99.90;;;;;;5035569;28;20438;-50
2021/12/09 04:45:30;;;;;;;68.82;36.22;;;4.50;99.90;;;;;;5035361;28;20099;-49
2021/12/09 04:47:57;;;;;;;64.18;36.83;;;4.40;99.90;;;;;;5035443;28;20482;-50
2021/12/09 04:50:25;;;;;;;71.50;39.92;;;4.40;99.90;;;;;;5035473;28;20032;-50
2021/12/09 04:52:51;;;;;;;97.38;50.63;;;4.30;99.90;;;;;;5035413;28;20055;-49
2021/12/09 04:55:17;;;;;;;95.30;50.50;;;4.30;99.90;;;;;;5035318;28;20030;-49
2021/12/09 04:57:43;;;;;;;124.38;60.88;;;4.20;99.90;;;;;;5035153;28;20080;-50
2021/12/09 05:00:15;;;;;;;158.23;75.05;;;4.10;99.90;;;;;;5035173;28;20025;-50
2021/12/09 05:03:04;;;;;;;256.02;107.45;;;4.20;99.90;;;;;;5035269;28;20029;-50
2021/12/09 05:05:32;;;;;;;286.92;113.35;;;4.20;99.90;;;;;;5034679;28;20506;-49
2021/12/09 05:07:58;;;;;;;;;;;4.30;99.90;;;;;;5035494;28;20047;-50
2021/12/09 05:10:24;;;;;;;255.50;114.85;;;4.30;99.90;;;;;;5035111;28;19905;-50
2021/12/09 05:12:50;;;;;;;273.08;122.90;;;4.30;99.90;;;;;;5035018;28;20025;-49
2021/12/09 05:15:16;;;;;;;255.82;114.25;;;4.20;99.90;;;;;;5034924;28;20041;-50
2021/12/09 05:17:42;;;;;;;237.65;104.22;;;4.20;99.90;;;;;;5034865;28;20029;-49
2021/12/09 05:20:08;;;;;;;226.73;101.35;;;4.20;99.90;;;;;;5034960;28;20021;-49
2021/12/09 05:22:34;;;;;;;187.65;86.68;;;4.20;99.90;;;;;;5034872;28;20025;-50
2021/12/09 05:25:00;;;;;;;168.35;77.18;;;4.20;99.90;;;;;;5033352;28;20021;-50
2021/12/09 05:27:26;;;;;;;162.88;77.72;;;4.10;99.90;;;;;;5034843;28;20097;-50
2021/12/09 05:30:03;;;;;;;173.60;81.38;;;4.00;99.90;;;;;;5034765;28;20041;-50
2021/12/09 05:32:30;;;;;;;220.30;103.78;;;3.90;99.90;;;;;;5034964;28;20068;-50
2021/12/09 05:34:57;;;;;;;157.80;77.00;;;3.90;99.90;;;;;;5014895;28;20030;-50
2021/12/09 05:37:26;;;;;;;149.70;71.97;;;3.90;99.90;;;;;;5014833;28;20034;-50
2021/12/09 05:39:54;;;;;;;149.50;70.97;;;3.90;99.90;;;;;;5015125;28;20041;-50
2021/12/09 05:42:22;;;;;;;146.57;66.88;;;3.90;99.90;;;;;;5014879;28;20028;-49
2021/12/09 05:44:49;;;;;;;133.18;63.13;;;3.90;99.90;;;;;;5015061;28;20033;-50
2021/12/09 05:47:15;;;;;;;139.57;62.08;;;3.90;99.90;;;;;;5015061;28;20060;-49
2021/12/09 05:49:44;;;;;;;133.88;63.17;;;3.90;99.90;;;;;;5014895;28;20105;-50
2021/12/09 05:52:12;;;;;;;285.85;110.47;;;3.80;99.90;;;;;;5015011;28;20033;-50
2021/12/09 05:54:38;;;;;;;221.00;90.45;;;3.80;99.90;;;;;;5014731;28;20034;-50
2021/12/09 05:57:04;;;;;;;318.08;132.43;;;3.70;99.90;;;;;;5014905;28;20034;-50
2021/12/09 05:59:31;;;;;;;304.58;128.20;;;3.70;99.90;;;;;;5014799;28;20022;-50
2021/12/09 06:01:57;;;;;;;269.60;117.65;;;3.80;99.90;;;;;;5014789;28;20084;-49
2021/12/09 06:04:24;;;;;;;254.77;114.15;;;3.80;99.90;;;;;;5014634;28;20467;-50
2021/12/09 06:06:51;;;;;;;184.73;79.95;;;3.80;99.90;;;;;;5014735;28;20029;-50
2021/12/09 06:09:17;;;;;;;171.35;73.45;;;3.90;99.90;;;;;;5027349;28;20097;-50
2021/12/09 06:11:46;;;;;;;107.78;45.95;;;4.20;99.90;;;;;;5034351;28;20037;-50
2021/12/09 06:14:13;;;;;;;40.67;18.15;;;4.50;99.90;;;;;;5034366;28;20037;-50
2021/12/09 06:16:40;;;;;;;11.95;6.18;;;5.30;99.90;;;;;;5034201;28;20510;-50
2021/12/09 06:19:06;;;;;;;8.73;4.57;;;5.90;99.90;;;;;;5023907;28;20029;-50
2021/12/09 06:21:32;;;;;;;6.55;2.97;;;6.60;99.90;;;;;;5023049;28;20052;-50
2021/12/09 06:24:00;;;;;;;8.63;3.47;;;7.20;99.90;;;;;;5018322;28;20030;-50
2021/12/09 06:26:28;;;;;;;5.97;2.80;;;7.80;99.90;;;;;;5022623;28;20033;-50
2021/12/09 06:28:54;;;;;;;8.90;3.88;;;8.00;99.90;;;;;;5033359;28;20026;-50
2021/12/09 06:31:21;;;;;;;20.33;9.35;;;8.00;99.90;;;;;;5034119;28;20056;-50
2021/12/09 06:33:47;;;;;;;20.00;9.82;;;8.00;99.90;;;;;;5033195;28;20029;-50
2021/12/09 06:36:13;;;;;;;26.25;12.57;;;8.10;99.90;;;;;;5015111;28;20046;-50
2021/12/09 06:38:40;;;;;;;26.83;11.73;;;8.30;99.90;;;;;;5032481;28;20022;-50
2021/12/09 06:41:08;;;;;;;22.13;10.90;;;8.40;99.90;;;;;;5034757;28;20100;-50
2021/12/09 06:43:40;;;;;;;26.10;12.20;;;8.40;99.90;;;;;;5035825;28;20018;-50
2021/12/09 06:46:09;;;;;;;26.40;11.93;;;8.50;99.90;;;;;;5032859;28;20021;-50
2021/12/09 06:48:35;;;;;;;19.33;10.02;;;8.50;99.90;;;;;;5037135;28;20029;-50
2021/12/09 06:51:02;;;;;;;13.90;5.82;;;8.60;99.90;;;;;;5038180;28;20029;-50
2021/12/09 06:53:29;;;;;;;6.82;4.00;;;8.70;99.90;;;;;;5037483;28;20455;-50
2021/12/09 06:55:55;;;;;;;9.68;4.88;;;9.00;99.90;;;;;;5034935;28;20039;-50
2021/12/09 06:58:22;;;;;;;14.95;5.45;;;9.00;99.90;;;;;;5036201;28;20382;-50
2021/12/09 07:00:50;;;;;;;11.95;5.93;;;9.10;99.90;;;;;;5035910;28;20044;-50
2021/12/09 07:03:21;;;;;;;7.82;4.15;;;9.20;99.90;;;;;;5035449;28;20032;-50
2021/12/09 07:05:49;;;;;;;4.50;2.85;;;9.30;99.90;;;;;;5034908;28;20014;-50
2021/12/09 07:08:16;;;;;;;6.15;3.00;;;9.50;99.90;;;;;;5030460;28;20022;-50
2021/12/09 07:10:42;;;;;;;5.55;3.17;;;9.60;99.90;;;;;;5027385;28;20475;-50
2021/12/09 07:13:09;;;;;;;6.22;3.45;;;9.70;99.90;;;;;;5033999;28;20029;-50
2021/12/09 07:15:35;;;;;;;6.15;3.40;;;9.80;99.90;;;;;;5026750;28;20128;-50
2021/12/09 07:18:02;;;;;;;6.97;2.83;;;10.00;99.90;;;;;;5036918;28;20037;-50
2021/12/09 07:20:28;;;;;;;5.18;2.80;;;10.40;99.90;;;;;;5035543;28;20034;-51
2021/12/09 07:22:55;;;;;;;5.97;3.13;;;10.80;99.90;;;;;;5035715;28;20029;-50
2021/12/09 07:25:25;;;;;;;6.25;3.45;;;11.40;99.90;;;;;;5031446;28;20033;-51
2021/12/09 07:27:52;;;;;;;7.63;3.42;;;12.00;99.90;;;;;;5036127;28;20033;-51
2021/12/09 07:30:20;;;;;;;7.47;3.33;;;12.60;98.90;;;;;;5036240;28;20122;-51
2021/12/09 07:32:46;;;;;;;5.32;3.00;;;13.50;96.70;;;;;;5036814;28;20482;-51
2021/12/09 07:35:14;;;;;;;3.08;1.92;;;13.80;94.90;;;;;;5035641;28;20029;-51
2021/12/09 07:37:40;;;;;;;3.25;1.88;;;13.60;94.80;;;;;;5035575;28;20124;-51
2021/12/09 07:40:09;;;;;;;3.47;1.90;;;13.20;95.10;;;;;;5036776;28;20395;-51
2021/12/09 07:42:36;;;;;;;6.15;2.88;;;13.20;95.30;;;;;;5036496;28;20036;-51
2021/12/09 07:45:02;;;;;;;5.70;3.72;;;13.20;95.80;;;;;;5035970;28;20017;-51
2021/12/09 07:47:28;;;;;;;11.45;4.38;;;13.30;96.70;;;;;;5035265;28;20037;-51
2021/12/09 07:49:55;;;;;;;9.98;4.20;;;13.60;95.10;;;;;;5036010;28;20026;-51
2021/12/09 07:52:21;;;;;;;13.07;4.53;;;13.40;95.30;;;;;;5035526;28;20022;-51
2021/12/09 07:54:46;;;;;;;11.98;5.25;;;13.40;96.00;;;;;;5035893;28;20048;-51
2021/12/09 07:57:13;;;;;;;8.80;2.55;;;13.90;95.60;;;;;;5033558;28;20033;-51
2021/12/09 07:59:38;;;;;;;10.43;3.83;;;14.20;93.10;;;;;;5028888;28;20022;-51
2021/12/09 08:02:05;;;;;;;11.45;5.57;;;14.00;93.80;;;;;;5029888;28;20036;-51
2021/12/09 08:04:33;;;;;;;13.57;3.65;;;13.70;93.90;;;;;;5031623;28;20018;-51
2021/12/09 08:06:59;;;;;;;16.17;4.45;;;13.40;94.60;;;;;;5025857;28;20025;-51
2021/12/09 08:09:25;;;;;;;11.85;4.90;;;13.00;96.00;;;;;;5025898;28;20115;-51
2021/12/09 08:11:51;;;;;;;14.05;6.40;;;13.00;96.60;;;;;;5032185;28;20502;-50
2021/12/09 08:14:19;;;;;;;15.57;6.30;;;12.70;97.40;;;;;;5034669;28;20035;-50
2021/12/09 08:16:45;;;;;;;15.93;6.28;;;12.70;98.20;;;;;;5032944;28;20049;-50
2021/12/09 08:19:13;;;;;;;14.07;5.18;;;12.60;97.70;;;;;;5023085;28;20483;-50
2021/12/09 08:21:41;;;;;;;18.15;6.20;;;12.50;97.60;;;;;;5032971;28;20486;-50
2021/12/09 08:24:11;;;;;;;16.52;4.32;;;12.20;98.50;;;;;;5040231;28;20029;-50
2021/12/09 08:26:38;;;;;;;17.57;5.47;;;12.20;98.50;;;;;;5040010;28;20021;-50
2021/12/09 08:29:05;;;;;;;17.73;5.35;;;12.00;99.10;;;;;;5043125;28;20364;-50
2021/12/09 08:31:33;;;;;;;11.02;3.78;;;12.00;99.80;;;;;;5036331;28;20049;-50
2021/12/09 08:34:01;;;;;;;25.35;4.20;;;11.90;99.50;;;;;;5034737;28;20438;-50
2021/12/09 08:36:27;;;;;;;12.73;2.85;;;11.90;99.60;;;;;;5036984;28;20021;-50
2021/12/09 08:38:53;;;;;;;8.43;3.33;;;11.90;99.70;;;;;;5034550;28;20025;-50
2021/12/09 08:41:21;;;;;;;26.13;5.25;;;11.90;99.90;;;;;;5035262;28;20033;-50
2021/12/09 08:43:50;;;;;;;19.80;4.38;;;11.80;99.90;;;;;;5031575;28;20112;-50
2021/12/09 08:46:17;;;;;;;6.70;2.92;;;11.80;99.90;;;;;;5031531;28;20021;-50
2021/12/09 08:48:44;;;;;;;8.57;2.83;;;11.80;99.90;;;;;;5035823;28;20406;-50
2021/12/09 08:51:10;;;;;;;6.20;3.85;;;11.80;99.90;;;;;;5033131;28;20060;-50
2021/12/09 08:53:36;;;;;;;5.13;3.00;;;11.70;99.90;;;;;;5035223;28;20033;-50
2021/12/09 08:56:03;;;;;;;6.47;2.67;;;11.70;99.90;;;;;;5036765;28;20063;-50
2021/12/09 08:58:30;;;;;;;8.02;2.70;;;11.70;99.90;;;;;;5037313;28;20434;-50
2021/12/09 09:00:58;;;;;;;5.63;2.40;;;11.70;99.90;;;;;;5027417;28;20711;-50
2021/12/09 09:03:24;;;;;;;4.20;2.03;;;11.70;99.90;;;;;;5027166;28;20548;-50
2021/12/09 09:05:51;;;;;;;4.20;2.30;;;11.60;99.90;;;;;;5035506;28;20025;-50
2021/12/09 09:08:18;;;;;;;4.57;2.33;;;11.50;99.90;;;;;;5033679;28;20029;-50
2021/12/09 09:10:45;;;;;;;3.50;1.92;;;11.50;99.90;;;;;;5049365;28;20466;-50
2021/12/09 09:13:13;;;;;;;5.63;2.67;;;11.40;99.90;;;;;;5038441;28;20025;-50
2021/12/09 09:15:40;;;;;;;8.77;2.88;;;11.40;99.90;;;;;;5029358;28;20053;-50
2021/12/09 09:18:08;;;;;;;4.57;2.50;;;11.40;99.90;;;;;;5020336;28;20140;-50
2021/12/09 09:20:39;;;;;;;5.55;2.50;;;11.30;99.90;;;;;;5027994;28;20374;-50
2021/12/09 09:23:11;;;;;;;4.28;2.42;;;11.30;99.90;;;;;;5033544;28;20605;-50
2021/12/09 09:25:37;;;;;;;4.40;2.25;;;11.20;99.90;;;;;;5034986;28;20087;-50
2021/12/09 09:28:04;;;;;;;9.57;5.10;;;11.20;99.90;;;;;;5035653;28;20034;-50
2021/12/09 09:30:39;;;;;;;19.17;8.25;;;11.10;99.90;;;;;;5034430;28;20478;-50
2021/12/09 09:33:10;;;;;;;14.70;6.07;;;10.90;99.90;;;;;;5037979;28;20095;-50
2021/12/09 09:35:41;;;;;;;22.42;10.32;;;10.80;99.90;;;;;;5034056;28;20041;-50
2021/12/09 09:38:09;;;;;;;41.75;20.65;;;10.70;99.90;;;;;;5034033;28;20477;-50
2021/12/09 09:40:41;;;;;;;57.85;31.23;;;10.30;99.90;;;;;;5035467;28;20017;-50
2021/12/09 09:43:27;;;;;;;84.00;43.28;;;10.10;99.90;;;;;;5034521;28;20586;-50
2021/12/09 09:45:55;;;;;;;81.05;40.90;;;10.00;99.90;;;;;;5035657;28;20457;-50
2021/12/09 09:48:21;;;;;;;85.93;47.15;;;9.70;99.90;;;;;;5041011;28;20025;-50
2021/12/09 09:50:49;;;;;;;94.80;49.95;;;9.30;99.90;;;;;;5036023;28;20033;-49
2021/12/09 09:53:16;;;;;;;84.95;47.50;;;9.20;99.90;;;;;;5042874;28;20067;-50
2021/12/09 09:55:46;;;;;;;95.40;50.03;;;9.20;99.90;;;;;;5039789;28;20034;-50
2021/12/09 09:58:12;;;;;;;114.55;58.03;;;9.20;99.90;;;;;;5034366;28;20522;-49
2021/12/09 10:00:39;;;;;;;160.77;78.25;;;9.30;99.90;;;;;;5034798;28;20041;-50
2021/12/09 10:03:10;;;;;;;190.77;95.55;;;9.20;99.90;;;;;;5035180;28;20171;-50
2021/12/09 10:05:38;;;;;;;217.38;108.78;;;9.20;99.90;;;;;;5031806;28;20025;-50
2021/12/09 10:08:06;;;;;;;253.82;117.43;;;9.20;99.90;;;;;;5028557;28;20363;-50
2021/12/09 10:10:33;;;;;;;160.55;76.03;;;9.20;99.90;;;;;;5045961;28;20076;-50
2021/12/09 10:13:03;;;;;;;151.93;76.88;;;9.10;99.90;;;;;;5045743;28;20422;-50
2021/12/09 10:15:47;;;;;;;141.95;70.95;;;9.20;99.90;;;;;;5026907;28;20084;-50
2021/12/09 10:18:30;;;;;;;142.52;70.28;;;9.20;99.90;;;;;;5027098;28;20096;-50
2021/12/09 10:20:59;;;;;;;131.48;68.50;;;9.30;99.90;;;;;;5018148;28;20367;-50
2021/12/09 10:23:45;;;;;;;154.68;81.70;;;9.40;99.90;;;;;;5029072;28;20058;-50
2021/12/09 10:26:15;;;;;;;137.00;70.43;;;9.40;99.90;;;;;;5038226;28;20033;-50
2021/12/09 10:28:45;;;;;;;131.50;64.80;;;9.50;99.90;;;;;;5038146;28;20471;-50
2021/12/09 10:31:15;;;;;;;129.23;63.08;;;9.50;99.90;;;;;;5031690;28;20063;-50
2021/12/09 10:34:01;;;;;;;123.57;60.53;;;9.60;99.90;;;;;;5034398;28;20093;-50
2021/12/09 10:36:49;;;;;;;119.72;59.30;;;9.60;99.90;;;;;;5033201;28;20146;-50
2021/12/09 10:39:25;;;;;;;121.50;61.08;;;9.70;99.90;;;;;;5031290;28;20120;-50
2021/12/09 10:41:53;;;;;;;113.00;60.60;;;9.70;99.90;;;;;;5039513;28;20025;-50
2021/12/09 10:44:35;;;;;;;112.90;56.75;;;9.70;99.90;;;;;;5033193;28;20146;-50
2021/12/09 10:47:09;;;;;;;109.88;55.10;;;9.60;99.90;;;;;;5028730;28;20123;-50
2021/12/09 10:49:49;;;;;;;107.80;54.50;;;9.60;99.90;;;;;;5043083;28;20029;-50
2021/12/09 10:52:19;;;;;;;110.85;56.45;;;9.60;99.90;;;;;;5041941;28;20100;-50
2021/12/09 10:54:45;;;;;;;117.60;59.97;;;9.70;99.90;;;;;;5035356;28;20573;-50
2021/12/09 10:57:30;;;;;;;125.40;63.80;;;9.70;99.90;;;;;;5043922;28;20826;-50
2021/12/09 11:00:06;;;;;;;116.03;58.55;;;9.70;99.90;;;;;;5040631;28;20030;-50
2021/12/09 11:02:32;;;;;;;109.57;54.25;;;9.60;99.90;;;;;;5041175;28;20025;-50
2021/12/09 11:05:07;;;;;;;115.28;56.97;;;9.50;99.90;;;;;;5050684;28;20034;-50
2021/12/09 11:07:34;;;;;;;123.78;60.35;;;9.60;99.90;;;;;;5038214;28;20026;-50
2021/12/09 11:10:18;;;;;;;124.50;63.90;;;9.50;99.90;;;;;;5046323;28;20029;-50
2021/12/09 11:12:58;;;;;;;122.85;62.45;;;9.60;99.90;;;;;;5056516;28;20397;-50
2021/12/09 11:15:48;;;;;;;160.32;85.22;;;9.50;99.90;;;;;;5057360;28;20406;-50
2021/12/09 11:18:35;;;;;;;188.50;94.80;;;9.30;99.90;;;;;;5057221;28;20588;-49
2021/12/09 11:21:17;;;;;;;195.27;99.60;;;9.20;99.90;;;;;;5056958;28;20386;-49
2021/12/09 11:23:52;;;;;;;213.27;107.07;;;9.10;99.90;;;;;;5056656;28;20033;-50
2021/12/09 11:26:25;;;;;;;235.70;117.20;;;9.00;99.90;;;;;;5047998;28;20414;-49
2021/12/09 11:29:06;;;;;;;226.93;122.10;;;8.80;99.90;;;;;;5036887;28;20033;-49
2021/12/09 11:31:37;;;;;;;242.90;124.47;;;8.70;99.90;;;;;;5037271;28;20030;-49
2021/12/09 11:34:11;;;;;;;236.15;125.85;;;8.70;99.90;;;;;;5037474;28;20964;-49
2021/12/09 11:36:41;;;;;;;253.02;132.07;;;8.60;99.90;;;;;;5036662;28;20367;-49
2021/12/09 11:39:12;;;;;;;244.10;125.00;;;8.60;99.90;;;;;;5037272;28;20440;-49
2021/12/09 11:41:40;;;;;;;208.05;110.70;;;8.70;99.90;;;;;;5037188;28;20029;-49
2021/12/09 11:44:08;;;;;;;205.82;105.88;;;8.70;99.90;;;;;;5037284;28;20100;-49
2021/12/09 11:46:40;;;;;;;192.73;101.68;;;8.90;99.90;;;;;;5037045;28;20475;-49
2021/12/09 11:49:07;;;;;;;178.48;92.32;;;8.80;99.90;;;;;;5037111;28;20029;-49
2021/12/09 11:51:33;;;;;;;177.15;91.30;;;9.00;99.90;;;;;;5050926;28;20021;-49
2021/12/09 11:54:05;;;;;;;183.18;94.95;;;9.00;99.90;;;;;;5044799;28;20029;-49
2021/12/09 11:56:55;;;;;;;166.57;92.78;;;9.00;99.90;;;;;;5054207;28;20029;-49
2021/12/09 12:06:37;;;;;;;189.73;103.88;;;9.10;99.90;;;;;;5041537;28;20056;-49
2021/12/09 12:11:20;;;;;;;208.07;113.43;;;9.70;99.90;;;;;;5015923;28;20040;-50
2021/12/09 12:13:55;;;;;;;181.85;99.68;;;10.20;99.90;;;;;;5016058;28;20038;-50
2021/12/09 12:25:02;;;;;;;153.93;78.50;;;12.30;99.90;;;;;;5027348;28;20112;-50
2021/12/09 12:27:44;;;;;;;133.55;71.40;;;12.50;99.90;;;;;;5033618;28;20032;-50
2021/12/09 12:30:46;;;;;;;147.68;77.20;;;12.30;99.90;;;;;;5031272;28;20021;-50
2021/12/09 12:40:43;;;;;;;158.13;83.80;;;11.90;99.90;;;;;;5039286;28;20120;-50
2021/12/09 12:43:23;;;;;;;150.65;78.75;;;11.80;99.90;;;;;;5033878;28;20034;-50
2021/12/09 12:51:30;;;;;;;133.50;69.00;;;10.60;99.90;;;;;;5030986;28;20033;-50
2021/12/09 12:54:17;;;;;;;122.45;62.03;;;10.20;99.90;;;;;;5028965;28;20034;-49
2021/12/09 12:56:47;;;;;;;117.85;59.90;;;9.80;99.90;;;;;;5022281;28;20038;-50
2021/12/09 12:59:18;;;;;;;114.60;59.72;;;9.50;99.90;;;;;;5027033;28;20054;-51
2021/12/09 13:02:02;;;;;;;142.45;74.82;;;9.30;99.90;;;;;;5025841;28;20053;-50
2021/12/09 13:09:16;;;;;;;114.20;51.95;;;8.70;99.90;;;;;;5086378;28;20043;-50
2021/12/09 13:12:11;;;;;;;94.15;49.72;;;8.50;99.90;;;;;;5079213;28;20025;-50
2021/12/09 13:15:09;;;;;;;87.93;49.35;;;8.40;99.90;;;;;;5078521;28;20024;-50
2021/12/09 13:17:46;;;;;;;96.75;48.13;;;8.20;99.90;;;;;;5085946;28;20054;-49
2021/12/09 13:20:30;;;;;;;103.82;51.40;;;8.00;99.90;;;;;;5085014;28;20061;-49
2021/12/09 13:23:25;;;;;;;103.82;51.65;;;7.90;99.90;;;;;;5063293;28;20020;-49